createdAt,value
2017-12-28T00:00:22.474Z,82.60
2017-12-28T00:00:56.909Z,82.60
2017-12-28T00:01:30.585Z,82.50
2017-12-28T00:02:05.025Z,82.60
2017-12-28T00:02:38.697Z,82.60
2017-12-28T00:03:12.658Z,82.60
2017-12-28T00:03:47.126Z,82.60
2017-12-28T00:04:20.969Z,82.60
2017-12-28T00:04:55.410Z,82.60
2017-12-28T00:05:29.078Z,82.60
2017-12-28T00:06:02.775Z,82.60
2017-12-28T00:06:36.452Z,82.70
2017-12-28T00:07:10.889Z,82.60
2017-12-28T00:07:44.567Z,82.60
2017-12-28T00:08:18.529Z,82.70
2017-12-28T00:08:52.970Z,82.80
2017-12-28T00:09:26.654Z,82.60
2017-12-28T00:10:00.324Z,82.70
2017-12-28T00:10:34.756Z,82.70
2017-12-28T00:11:08.423Z,82.60
2017-12-28T00:11:42.862Z,82.70
2017-12-28T00:12:16.530Z,82.60
2017-12-28T00:12:50.233Z,82.60
2017-12-28T00:13:23.941Z,82.60
2017-12-28T00:13:57.806Z,82.60
2017-12-28T00:14:31.481Z,82.60
2017-12-28T00:15:05.927Z,82.60
2017-12-28T00:15:39.586Z,82.60
2017-12-28T00:16:14.028Z,82.60
2017-12-28T00:16:47.701Z,82.60
2017-12-28T00:17:21.360Z,82.60
2017-12-28T00:17:55.789Z,82.70
2017-12-28T00:18:29.494Z,82.70
2017-12-28T00:19:03.156Z,82.60
2017-12-28T00:19:37.590Z,82.70
2017-12-28T00:20:11.250Z,82.70
2017-12-28T00:20:45.694Z,82.70
2017-12-28T00:21:19.354Z,82.70
2017-12-28T00:21:53.027Z,82.60
2017-12-28T00:22:27.457Z,82.60
2017-12-28T00:23:01.125Z,82.50
2017-12-28T00:23:35.584Z,82.60
2017-12-28T00:24:09.252Z,82.60
2017-12-28T00:24:43.161Z,82.60
2017-12-28T00:25:16.826Z,82.70
2017-12-28T00:25:50.497Z,82.70
2017-12-28T00:26:24.929Z,82.80
2017-12-28T00:26:58.611Z,82.80
2017-12-28T00:27:32.275Z,82.80
2017-12-28T00:28:06.074Z,82.80
2017-12-28T00:28:40.557Z,82.80
2017-12-28T00:29:14.218Z,82.90
2017-12-28T00:29:47.891Z,82.80
2017-12-28T00:30:21.551Z,82.90
2017-12-28T00:30:55.974Z,82.80
2017-12-28T00:31:29.639Z,82.80
2017-12-28T00:32:04.070Z,82.50
2017-12-28T00:32:38.492Z,82.80
2017-12-28T00:33:12.166Z,82.90
2017-12-28T00:33:46.627Z,82.90
2017-12-28T00:34:20.299Z,82.90
2017-12-28T00:34:53.972Z,82.80
2017-12-28T00:35:27.457Z,82.80
2017-12-28T00:36:00.939Z,82.80
2017-12-28T00:36:34.426Z,82.80
2017-12-28T00:37:08.097Z,82.80
2017-12-28T00:37:41.775Z,82.90
2017-12-28T00:38:16.019Z,83.00
2017-12-28T00:38:50.075Z,83.00
2017-12-28T00:39:24.514Z,83.10
2017-12-28T00:39:58.169Z,83.10
2017-12-28T00:40:32.601Z,83.00
2017-12-28T00:41:06.286Z,83.00
2017-12-28T00:41:41.259Z,83.00
2017-12-28T00:42:14.737Z,83.00
2017-12-28T00:42:48.404Z,83.10
2017-12-28T00:43:22.065Z,83.00
2017-12-28T00:43:56.039Z,83.10
2017-12-28T00:44:30.468Z,83.20
2017-12-28T00:45:04.234Z,83.10
2017-12-28T00:45:37.900Z,83.10
2017-12-28T00:46:11.569Z,83.10
2017-12-28T00:46:45.250Z,83.10
2017-12-28T00:47:18.729Z,83.10
2017-12-28T00:47:52.399Z,83.20
2017-12-28T00:48:26.825Z,83.20
2017-12-28T00:49:00.519Z,83.30
2017-12-28T00:49:34.329Z,83.20
2017-12-28T00:50:07.813Z,83.20
2017-12-28T00:50:41.282Z,83.20
2017-12-28T00:51:14.955Z,83.20
2017-12-28T00:51:48.620Z,83.30
2017-12-28T00:52:23.054Z,83.40
2017-12-28T00:52:56.721Z,83.40
2017-12-28T00:53:30.961Z,83.40
2017-12-28T00:54:04.661Z,83.40
2017-12-28T00:54:38.318Z,83.30
2017-12-28T00:55:12.767Z,83.40
2017-12-28T00:55:46.254Z,83.40
2017-12-28T00:56:19.737Z,83.40
2017-12-28T00:56:53.399Z,83.40
2017-12-28T00:57:27.077Z,83.30
2017-12-28T00:58:00.747Z,83.40
2017-12-28T00:58:35.184Z,83.90
2017-12-28T00:59:09.152Z,83.30
2017-12-28T00:59:43.578Z,83.20
2017-12-28T01:00:17.244Z,83.20
2017-12-28T01:00:50.914Z,83.20
2017-12-28T01:01:24.572Z,83.20
2017-12-28T01:01:58.233Z,83.20
2017-12-28T01:02:32.678Z,83.10
2017-12-28T01:03:06.343Z,83.20
2017-12-28T01:03:40.026Z,83.10
2017-12-28T01:04:13.760Z,83.10
2017-12-28T01:04:47.433Z,83.00
2017-12-28T01:05:21.094Z,83.10
2017-12-28T01:05:54.805Z,83.00
2017-12-28T01:06:28.470Z,82.90
2017-12-28T01:07:02.909Z,83.00
2017-12-28T01:07:36.591Z,83.00
2017-12-28T01:08:10.254Z,82.90
2017-12-28T01:08:44.697Z,82.80
2017-12-28T01:09:18.774Z,82.80
2017-12-28T01:09:52.445Z,82.70
2017-12-28T01:10:26.881Z,82.70
2017-12-28T01:11:00.547Z,82.70
2017-12-28T01:11:34.977Z,82.60
2017-12-28T01:12:08.649Z,82.60
2017-12-28T01:12:43.078Z,82.60
2017-12-28T01:13:16.734Z,82.50
2017-12-28T01:13:51.174Z,82.30
2017-12-28T01:14:25.234Z,82.40
2017-12-28T01:14:59.722Z,82.30
2017-12-28T01:15:33.378Z,82.30
2017-12-28T01:16:07.043Z,82.20
2017-12-28T01:16:40.721Z,82.20
2017-12-28T01:17:15.162Z,81.90
2017-12-28T01:17:48.823Z,81.90
2017-12-28T01:18:22.497Z,82.00
2017-12-28T01:18:56.941Z,81.80
2017-12-28T01:19:30.635Z,81.70
2017-12-28T01:20:04.303Z,81.70
2017-12-28T01:20:37.981Z,82.20
2017-12-28T01:21:12.422Z,81.50
2017-12-28T01:21:46.086Z,81.50
2017-12-28T01:22:19.758Z,81.40
2017-12-28T01:22:54.204Z,82.10
2017-12-28T01:23:27.869Z,81.50
2017-12-28T01:24:02.301Z,81.60
2017-12-28T01:24:35.993Z,81.60
2017-12-28T01:25:09.647Z,81.80
2017-12-28T01:25:44.077Z,81.70
2017-12-28T01:26:17.741Z,81.70
2017-12-28T01:26:52.169Z,81.70
2017-12-28T01:27:25.854Z,81.60
2017-12-28T01:27:59.525Z,81.60
2017-12-28T01:28:33.189Z,81.60
2017-12-28T01:29:09.094Z,81.60
2017-12-28T01:29:42.810Z,81.60
2017-12-28T01:30:16.487Z,81.50
2017-12-28T01:30:50.155Z,81.50
2017-12-28T01:31:23.831Z,81.40
2017-12-28T01:31:57.561Z,81.40
2017-12-28T01:32:31.235Z,81.50
2017-12-28T01:33:04.901Z,81.40
2017-12-28T01:33:38.570Z,81.40
2017-12-28T01:34:12.997Z,81.40
2017-12-28T01:34:46.678Z,82.00
2017-12-28T01:35:21.110Z,81.40
2017-12-28T01:35:54.770Z,81.40
2017-12-28T01:36:29.214Z,81.40
2017-12-28T01:37:02.875Z,81.40
2017-12-28T01:37:37.117Z,81.30
2017-12-28T01:38:10.853Z,81.30
2017-12-28T01:38:45.281Z,81.70
2017-12-28T01:39:19.710Z,81.30
2017-12-28T01:39:53.769Z,81.30
2017-12-28T01:40:28.195Z,81.30
2017-12-28T01:41:02.630Z,81.30
2017-12-28T01:41:36.126Z,81.30
2017-12-28T01:42:09.994Z,81.20
2017-12-28T01:42:43.663Z,81.20
2017-12-28T01:43:18.089Z,81.20
2017-12-28T01:43:51.761Z,81.20
2017-12-28T01:44:26.187Z,81.20
2017-12-28T01:44:59.713Z,81.10
2017-12-28T01:45:33.378Z,81.10
2017-12-28T01:46:07.057Z,81.10
2017-12-28T01:46:40.736Z,81.10
2017-12-28T01:47:14.400Z,81.10
2017-12-28T01:48:00.110Z,81.10
2017-12-28T01:48:33.796Z,81.10
2017-12-28T01:49:07.450Z,81.10
2017-12-28T01:49:40.968Z,81.10
2017-12-28T01:50:14.479Z,81.10
2017-12-28T01:50:48.158Z,81.10
2017-12-28T01:51:21.829Z,81.00
2017-12-28T01:51:55.490Z,81.10
2017-12-28T01:52:29.916Z,81.00
2017-12-28T01:53:03.579Z,81.00
2017-12-28T01:53:37.245Z,81.00
2017-12-28T01:54:10.914Z,80.90
2017-12-28T01:54:44.578Z,80.90
2017-12-28T01:55:18.281Z,80.80
2017-12-28T01:55:51.949Z,80.80
2017-12-28T01:56:26.385Z,80.80
2017-12-28T01:57:00.043Z,80.80
2017-12-28T01:57:34.482Z,80.80
2017-12-28T01:58:08.166Z,80.80
2017-12-28T01:58:41.830Z,80.80
2017-12-28T01:59:16.268Z,80.80
2017-12-28T01:59:49.956Z,80.80
2017-12-28T02:00:23.671Z,80.70
2017-12-28T02:00:57.334Z,80.80
2017-12-28T02:01:30.990Z,80.70
2017-12-28T02:02:05.417Z,80.80
2017-12-28T02:02:39.078Z,80.70
2017-12-28T02:03:12.730Z,80.60
2017-12-28T02:03:46.394Z,80.60
2017-12-28T02:04:20.063Z,80.70
2017-12-28T02:04:54.486Z,80.70
2017-12-28T02:05:28.259Z,80.70
2017-12-28T02:06:01.946Z,80.70
2017-12-28T02:06:36.369Z,80.70
2017-12-28T02:07:10.030Z,80.80
2017-12-28T02:07:43.705Z,80.70
2017-12-28T02:08:17.369Z,80.80
2017-12-28T02:08:51.041Z,80.80
2017-12-28T02:09:24.708Z,80.80
2017-12-28T02:09:59.145Z,80.80
2017-12-28T02:10:32.843Z,80.80
2017-12-28T02:11:06.502Z,81.50
2017-12-28T02:11:40.172Z,80.90
2017-12-28T02:12:14.610Z,81.00
2017-12-28T02:12:48.280Z,81.00
2017-12-28T02:13:22.710Z,81.10
2017-12-28T02:13:56.366Z,81.10
2017-12-28T02:14:30.793Z,81.10
2017-12-28T02:15:03.818Z,81.10
2017-12-28T02:15:37.507Z,81.10
2017-12-28T02:16:11.182Z,81.20
2017-12-28T02:16:44.853Z,81.20
2017-12-28T02:17:18.514Z,81.20
2017-12-28T02:17:52.951Z,81.20
2017-12-28T02:18:26.619Z,81.20
2017-12-28T02:19:00.275Z,81.30
2017-12-28T02:19:34.140Z,81.30
2017-12-28T02:20:07.138Z,81.30
2017-12-28T02:20:40.821Z,81.30
2017-12-28T02:21:14.479Z,81.40
2017-12-28T02:21:48.142Z,81.30
2017-12-28T02:22:21.849Z,81.30
2017-12-28T02:22:55.507Z,81.30
2017-12-28T02:23:29.945Z,81.30
2017-12-28T02:24:03.602Z,81.30
2017-12-28T02:24:38.046Z,81.20
2017-12-28T02:25:11.710Z,81.30
2017-12-28T02:25:45.428Z,81.20
2017-12-28T02:26:19.088Z,81.20
2017-12-28T02:26:53.522Z,81.10
2017-12-28T02:27:27.182Z,81.10
2017-12-28T02:28:01.616Z,81.00
2017-12-28T02:28:35.314Z,81.00
2017-12-28T02:29:08.985Z,81.00
2017-12-28T02:29:42.644Z,80.90
2017-12-28T02:30:17.066Z,80.90
2017-12-28T02:30:51.523Z,80.70
2017-12-28T02:31:25.173Z,80.80
2017-12-28T02:31:58.852Z,80.70
2017-12-28T02:32:33.310Z,80.50
2017-12-28T02:33:06.979Z,80.70
2017-12-28T02:33:40.635Z,80.50
2017-12-28T02:34:15.065Z,80.50
2017-12-28T02:34:48.717Z,80.50
2017-12-28T02:35:23.138Z,81.10
2017-12-28T02:35:57.590Z,80.50
2017-12-28T02:36:31.258Z,80.50
2017-12-28T02:37:04.921Z,80.50
2017-12-28T02:37:39.353Z,80.60
2017-12-28T02:38:13.011Z,80.70
2017-12-28T02:38:47.451Z,80.60
2017-12-28T02:39:21.107Z,80.60
2017-12-28T02:39:54.792Z,80.80
2017-12-28T02:40:28.621Z,80.80
2017-12-28T02:41:02.325Z,80.90
2017-12-28T02:41:35.989Z,80.90
2017-12-28T02:42:09.671Z,80.90
2017-12-28T02:42:44.102Z,80.90
2017-12-28T02:43:17.755Z,80.90
2017-12-28T02:43:52.178Z,81.10
2017-12-28T02:44:26.602Z,81.00
2017-12-28T02:45:00.257Z,81.00
2017-12-28T02:45:33.913Z,81.00
2017-12-28T02:46:07.605Z,81.00
2017-12-28T02:46:41.297Z,81.10
2017-12-28T02:47:14.953Z,81.30
2017-12-28T02:47:48.620Z,81.10
2017-12-28T02:48:23.045Z,81.20
2017-12-28T02:48:56.702Z,81.20
2017-12-28T02:49:30.390Z,81.20
2017-12-28T02:50:03.877Z,81.50
2017-12-28T02:50:38.313Z,81.40
2017-12-28T02:51:12.024Z,81.30
2017-12-28T02:51:45.893Z,81.40
2017-12-28T02:52:19.559Z,81.40
2017-12-28T02:52:53.977Z,81.40
2017-12-28T02:53:28.395Z,81.50
2017-12-28T02:54:02.073Z,81.50
2017-12-28T02:54:36.515Z,81.50
2017-12-28T02:55:10.191Z,81.50
2017-12-28T02:55:43.929Z,81.50
2017-12-28T02:56:17.620Z,81.50
2017-12-28T02:56:51.276Z,81.60
2017-12-28T02:57:24.930Z,81.60
2017-12-28T02:57:58.608Z,81.50
2017-12-28T02:58:33.035Z,81.70
2017-12-28T02:59:06.708Z,81.60
2017-12-28T02:59:41.154Z,81.50
2017-12-28T03:00:14.818Z,81.50
2017-12-28T03:00:49.256Z,81.70
2017-12-28T03:01:22.947Z,81.70
2017-12-28T03:01:56.289Z,81.70
2017-12-28T03:02:30.718Z,81.60
2017-12-28T03:03:04.375Z,81.60
2017-12-28T03:03:38.034Z,81.60
2017-12-28T03:04:11.702Z,81.60
2017-12-28T03:04:45.373Z,81.70
2017-12-28T03:05:19.106Z,81.70
2017-12-28T03:05:52.777Z,81.60
2017-12-28T03:06:26.642Z,81.60
2017-12-28T03:07:00.306Z,81.70
2017-12-28T03:07:34.746Z,81.80
2017-12-28T03:08:08.423Z,81.80
2017-12-28T03:08:42.077Z,81.80
2017-12-28T03:09:15.842Z,81.80
2017-12-28T03:09:49.676Z,81.90
2017-12-28T03:10:23.529Z,81.90
2017-12-28T03:10:57.194Z,82.00
2017-12-28T03:11:31.262Z,82.00
2017-12-28T03:12:05.689Z,82.10
2017-12-28T03:12:39.366Z,82.00
2017-12-28T03:13:13.804Z,82.00
2017-12-28T03:13:47.466Z,82.00
2017-12-28T03:14:21.122Z,82.00
2017-12-28T03:14:54.784Z,82.00
2017-12-28T03:15:28.450Z,82.00
2017-12-28T03:16:02.108Z,82.10
2017-12-28T03:16:36.842Z,82.10
2017-12-28T03:17:11.278Z,82.10
2017-12-28T03:17:44.958Z,82.10
2017-12-28T03:18:18.628Z,82.10
2017-12-28T03:18:51.627Z,82.10
2017-12-28T03:19:25.291Z,82.10
2017-12-28T03:19:58.957Z,82.10
2017-12-28T03:20:32.621Z,82.20
2017-12-28T03:21:06.295Z,82.20
2017-12-28T03:21:39.985Z,82.10
2017-12-28T03:22:13.664Z,82.10
2017-12-28T03:22:47.324Z,82.10
2017-12-28T03:23:20.986Z,82.10
2017-12-28T03:23:55.422Z,82.20
2017-12-28T03:24:29.859Z,82.10
2017-12-28T03:25:03.525Z,82.10
2017-12-28T03:25:37.089Z,82.20
2017-12-28T03:26:11.332Z,82.10
2017-12-28T03:26:45.182Z,82.10
2017-12-28T03:27:19.430Z,82.30
2017-12-28T03:27:53.102Z,82.10
2017-12-28T03:28:26.593Z,82.10
2017-12-28T03:29:00.260Z,82.10
2017-12-28T03:29:34.697Z,82.20
2017-12-28T03:30:08.361Z,82.20
2017-12-28T03:30:42.033Z,82.20
2017-12-28T03:31:15.710Z,82.30
2017-12-28T03:31:49.721Z,82.30
2017-12-28T03:32:23.379Z,82.30
2017-12-28T03:32:57.046Z,82.40
2017-12-28T03:33:30.714Z,83.00
2017-12-28T03:34:04.384Z,82.30
2017-12-28T03:34:38.850Z,82.30
2017-12-28T03:35:13.443Z,82.30
2017-12-28T03:35:47.106Z,82.30
2017-12-28T03:36:20.777Z,82.30
2017-12-28T03:36:55.258Z,82.40
2017-12-28T03:37:28.927Z,82.40
2017-12-28T03:38:02.397Z,82.50
2017-12-28T03:38:36.067Z,82.50
2017-12-28T03:39:09.725Z,82.60
2017-12-28T03:39:43.399Z,82.60
2017-12-28T03:40:17.062Z,82.50
2017-12-28T03:40:50.736Z,82.50
2017-12-28T03:41:24.401Z,82.60
2017-12-28T03:41:59.214Z,82.60
2017-12-28T03:42:33.657Z,82.60
2017-12-28T03:43:07.324Z,82.60
2017-12-28T03:43:41.562Z,82.80
2017-12-28T03:44:15.222Z,82.80
2017-12-28T03:44:48.728Z,82.80
2017-12-28T03:45:22.426Z,82.80
2017-12-28T03:45:56.081Z,82.90
2017-12-28T03:46:30.497Z,82.90
2017-12-28T03:47:04.008Z,82.90
2017-12-28T03:47:37.753Z,82.90
2017-12-28T03:48:12.177Z,82.90
2017-12-28T03:48:45.952Z,82.90
2017-12-28T03:49:20.369Z,82.90
2017-12-28T03:49:54.797Z,82.90
2017-12-28T03:50:28.460Z,83.00
2017-12-28T03:51:02.912Z,83.10
2017-12-28T03:51:36.575Z,83.10
2017-12-28T03:52:10.540Z,83.10
2017-12-28T03:52:45.005Z,83.30
2017-12-28T03:53:18.671Z,83.20
2017-12-28T03:53:52.321Z,83.30
2017-12-28T03:54:26.753Z,83.40
2017-12-28T03:55:01.176Z,83.30
2017-12-28T03:55:34.841Z,83.30
2017-12-28T03:56:09.256Z,83.30
2017-12-28T03:56:43.695Z,83.30
2017-12-28T03:57:17.390Z,83.40
2017-12-28T03:57:51.046Z,83.30
2017-12-28T03:58:24.711Z,83.20
2017-12-28T03:58:59.141Z,83.30
2017-12-28T03:59:33.577Z,83.40
2017-12-28T04:00:07.238Z,83.40
2017-12-28T04:00:41.673Z,83.50
2017-12-28T04:01:15.330Z,83.50
2017-12-28T04:01:49.772Z,83.50
2017-12-28T04:03:12.879Z,83.80
2017-12-28T04:03:47.314Z,83.60
2017-12-28T04:04:20.977Z,83.60
2017-12-28T04:04:55.406Z,83.60
2017-12-28T04:05:29.075Z,83.60
2017-12-28T04:06:03.508Z,83.60
2017-12-28T04:06:37.252Z,83.60
2017-12-28T04:07:10.921Z,83.60
2017-12-28T04:07:44.585Z,83.60
2017-12-28T04:08:18.287Z,83.60
2017-12-28T04:08:52.036Z,83.60
2017-12-28T04:09:26.470Z,83.70
2017-12-28T04:10:00.142Z,83.70
2017-12-28T04:10:33.808Z,83.60
2017-12-28T04:11:07.475Z,83.60
2017-12-28T04:11:41.142Z,84.20
2017-12-28T04:12:14.816Z,83.70
2017-12-28T04:12:48.165Z,83.60
2017-12-28T04:13:22.656Z,83.70
2017-12-28T04:13:56.318Z,83.70
2017-12-28T04:14:29.989Z,83.70
2017-12-28T04:15:03.662Z,83.70
2017-12-28T04:15:37.337Z,83.70
2017-12-28T04:16:11.014Z,83.70
2017-12-28T04:16:44.673Z,83.70
2017-12-28T04:17:18.345Z,83.70
2017-12-28T04:17:51.997Z,83.70
2017-12-28T04:18:26.437Z,83.80
2017-12-28T04:19:00.094Z,83.80
2017-12-28T04:19:34.524Z,83.70
2017-12-28T04:20:08.194Z,83.70
2017-12-28T04:20:42.681Z,83.70
2017-12-28T04:21:16.380Z,83.80
2017-12-28T04:21:50.801Z,83.70
2017-12-28T04:22:24.462Z,83.70
2017-12-28T04:22:58.119Z,83.70
2017-12-28T04:23:32.153Z,83.70
2017-12-28T04:24:05.818Z,83.80
2017-12-28T04:24:39.473Z,83.90
2017-12-28T04:25:13.465Z,83.70
2017-12-28T04:25:47.133Z,83.80
2017-12-28T04:26:21.567Z,83.80
2017-12-28T04:26:55.229Z,83.80
2017-12-28T04:27:29.658Z,83.80
2017-12-28T04:28:03.317Z,83.80
2017-12-28T04:28:37.836Z,83.90
2017-12-28T04:29:12.263Z,83.80
2017-12-28T04:29:45.922Z,83.80
2017-12-28T04:30:20.340Z,83.90
2017-12-28T04:30:54.808Z,83.90
2017-12-28T04:31:28.473Z,83.80
2017-12-28T04:32:02.131Z,83.90
2017-12-28T04:32:36.556Z,83.90
2017-12-28T04:33:10.218Z,83.90
2017-12-28T04:33:44.965Z,83.90
2017-12-28T04:34:18.630Z,83.90
2017-12-28T04:34:53.057Z,83.90
2017-12-28T04:35:26.725Z,83.90
2017-12-28T04:36:01.158Z,84.00
2017-12-28T04:36:34.826Z,84.00
2017-12-28T04:37:08.510Z,84.00
2017-12-28T04:37:42.943Z,83.90
2017-12-28T04:38:16.606Z,83.90
2017-12-28T04:38:51.060Z,84.00
2017-12-28T04:39:24.725Z,84.00
2017-12-28T04:39:59.406Z,84.00
2017-12-28T04:40:33.837Z,84.10
2017-12-28T04:41:07.500Z,84.00
2017-12-28T04:41:41.950Z,84.80
2017-12-28T04:42:15.610Z,83.90
2017-12-28T04:42:50.058Z,84.00
2017-12-28T04:43:23.734Z,84.00
2017-12-28T04:43:57.793Z,84.00
2017-12-28T04:44:32.215Z,83.70
2017-12-28T04:45:06.641Z,83.90
2017-12-28T04:45:40.309Z,84.00
2017-12-28T04:46:14.738Z,84.00
2017-12-28T04:46:48.406Z,84.00
2017-12-28T04:47:22.858Z,84.00
2017-12-28T04:47:56.533Z,84.00
2017-12-28T04:48:30.016Z,84.00
2017-12-28T04:49:03.713Z,84.00
2017-12-28T04:49:37.369Z,84.00
2017-12-28T04:50:11.803Z,84.10
2017-12-28T04:50:45.466Z,84.10
2017-12-28T04:51:19.900Z,84.00
2017-12-28T04:51:53.566Z,84.00
2017-12-28T04:52:27.227Z,84.00
2017-12-28T04:53:00.888Z,84.10
2017-12-28T04:53:34.370Z,84.10
2017-12-28T04:54:08.064Z,84.10
2017-12-28T04:54:41.737Z,84.10
2017-12-28T04:55:15.401Z,84.20
2017-12-28T04:55:48.901Z,84.20
2017-12-28T04:56:22.557Z,84.20
2017-12-28T04:56:56.982Z,84.30
2017-12-28T04:57:30.642Z,84.30
2017-12-28T04:58:04.305Z,84.30
2017-12-28T04:58:37.962Z,84.30
2017-12-28T04:59:11.650Z,84.30
2017-12-28T04:59:45.317Z,84.30
2017-12-28T05:00:19.751Z,84.40
2017-12-28T05:00:53.405Z,84.40
2017-12-28T05:01:27.837Z,84.40
2017-12-28T05:02:01.497Z,84.40
2017-12-28T05:02:35.160Z,84.40
2017-12-28T05:03:08.825Z,84.70
2017-12-28T05:03:42.486Z,84.40
2017-12-28T05:04:16.946Z,84.40
2017-12-28T05:04:50.602Z,84.40
2017-12-28T05:05:24.265Z,84.40
2017-12-28T05:05:58.694Z,85.20
2017-12-28T05:06:32.346Z,84.60
2017-12-28T05:07:06.008Z,84.50
2017-12-28T05:07:39.681Z,84.60
2017-12-28T05:08:13.338Z,84.50
2017-12-28T05:08:47.004Z,84.50
2017-12-28T05:09:21.840Z,84.30
2017-12-28T05:09:56.266Z,84.70
2017-12-28T05:10:29.935Z,85.30
2017-12-28T05:11:04.369Z,84.70
2017-12-28T05:11:38.033Z,84.70
2017-12-28T05:12:12.452Z,84.70
2017-12-28T05:12:46.175Z,84.60
2017-12-28T05:13:19.857Z,84.60
2017-12-28T05:13:53.526Z,84.50
2017-12-28T05:14:27.489Z,84.50
2017-12-28T05:15:01.229Z,84.50
2017-12-28T05:15:34.893Z,84.60
2017-12-28T05:16:08.561Z,84.40
2017-12-28T05:16:42.993Z,84.50
2017-12-28T05:17:16.318Z,84.50
2017-12-28T05:17:49.988Z,84.40
2017-12-28T05:18:23.650Z,84.40
2017-12-28T05:18:57.316Z,84.40
2017-12-28T05:19:32.095Z,84.30
2017-12-28T05:20:05.768Z,84.30
2017-12-28T05:20:39.488Z,84.30
2017-12-28T05:21:13.142Z,84.30
2017-12-28T05:21:46.806Z,84.30
2017-12-28T05:22:20.469Z,84.80
2017-12-28T05:22:54.122Z,84.20
2017-12-28T05:23:27.780Z,84.30
2017-12-28T05:24:01.438Z,84.20
2017-12-28T05:24:35.446Z,84.20
2017-12-28T05:25:09.880Z,84.10
2017-12-28T05:25:43.547Z,84.10
2017-12-28T05:26:17.977Z,84.10
2017-12-28T05:26:51.650Z,84.10
2017-12-28T05:27:26.089Z,84.10
2017-12-28T05:27:59.754Z,84.00
2017-12-28T05:28:34.182Z,84.00
2017-12-28T05:29:07.852Z,84.00
2017-12-28T05:29:42.309Z,84.00
2017-12-28T05:30:15.975Z,83.90
2017-12-28T05:30:49.663Z,84.00
2017-12-28T05:31:23.326Z,84.00
2017-12-28T05:31:56.998Z,83.90
2017-12-28T05:32:31.422Z,84.00
2017-12-28T05:33:05.073Z,84.00
2017-12-28T05:33:38.731Z,83.90
2017-12-28T05:34:12.395Z,83.90
2017-12-28T05:34:46.369Z,83.90
2017-12-28T05:35:20.797Z,83.90
2017-12-28T05:35:54.450Z,83.90
2017-12-28T05:36:28.120Z,83.80
2017-12-28T05:37:01.792Z,83.80
2017-12-28T05:37:35.454Z,83.80
2017-12-28T05:38:09.122Z,83.90
2017-12-28T05:38:43.561Z,83.90
2017-12-28T05:39:17.237Z,83.80
2017-12-28T05:39:51.229Z,83.90
2017-12-28T05:40:25.653Z,83.90
2017-12-28T05:40:59.302Z,83.90
2017-12-28T05:41:32.975Z,83.80
2017-12-28T05:42:06.634Z,83.80
2017-12-28T05:42:40.119Z,83.80
2017-12-28T05:43:13.598Z,83.80
2017-12-28T05:43:47.069Z,83.80
2017-12-28T05:44:20.542Z,83.80
2017-12-28T05:44:54.989Z,83.80
2017-12-28T05:45:28.657Z,83.80
2017-12-28T05:46:02.142Z,83.90
2017-12-28T05:46:35.806Z,83.90
2017-12-28T05:47:10.232Z,83.80
2017-12-28T05:47:43.988Z,83.80
2017-12-28T05:48:17.653Z,83.70
2017-12-28T05:48:51.128Z,83.60
2017-12-28T05:49:24.793Z,83.50
2017-12-28T05:49:58.504Z,83.50
2017-12-28T05:50:32.174Z,83.50
2017-12-28T05:51:05.851Z,83.50
2017-12-28T05:51:39.324Z,83.50
2017-12-28T05:52:13.745Z,83.40
2017-12-28T05:52:47.410Z,83.40
2017-12-28T05:53:21.834Z,83.40
2017-12-28T05:53:55.309Z,83.40
2017-12-28T05:54:29.742Z,83.50
2017-12-28T05:55:03.476Z,83.50
2017-12-28T05:55:37.946Z,83.40
2017-12-28T05:56:11.619Z,83.40
2017-12-28T05:56:45.277Z,83.40
2017-12-28T05:57:18.946Z,83.40
2017-12-28T05:57:52.615Z,83.30
2017-12-28T05:58:26.278Z,83.30
2017-12-28T05:58:59.988Z,83.30
2017-12-28T05:59:33.889Z,83.30
2017-12-28T06:00:07.574Z,83.20
2017-12-28T06:00:41.240Z,83.30
2017-12-28T06:01:14.893Z,83.20
2017-12-28T06:01:48.546Z,83.20
2017-12-28T06:02:22.206Z,83.20
2017-12-28T06:02:55.866Z,83.20
2017-12-28T06:03:29.532Z,83.10
2017-12-28T06:04:03.190Z,83.10
2017-12-28T06:04:36.845Z,83.10
2017-12-28T06:05:11.302Z,83.10
2017-12-28T06:05:44.965Z,83.10
2017-12-28T06:06:18.639Z,83.10
2017-12-28T06:06:53.063Z,83.20
2017-12-28T06:07:26.740Z,83.10
2017-12-28T06:08:01.170Z,83.20
2017-12-28T06:08:34.821Z,83.20
2017-12-28T06:09:09.248Z,83.20
2017-12-28T06:09:43.977Z,83.10
2017-12-28T06:10:17.677Z,83.10
2017-12-28T06:10:51.337Z,83.10
2017-12-28T06:11:25.772Z,83.10
2017-12-28T06:11:59.438Z,83.10
2017-12-28T06:12:33.120Z,83.20
2017-12-28T06:13:07.561Z,83.10
2017-12-28T06:13:41.226Z,83.10
2017-12-28T06:14:14.908Z,83.10
2017-12-28T06:14:49.346Z,83.30
2017-12-28T06:15:23.042Z,83.20
2017-12-28T06:15:56.818Z,83.20
2017-12-28T06:16:30.486Z,83.20
2017-12-28T06:17:04.926Z,83.30
2017-12-28T06:17:38.605Z,83.30
2017-12-28T06:18:12.094Z,83.30
2017-12-28T06:18:45.757Z,83.30
2017-12-28T06:19:20.202Z,83.20
2017-12-28T06:19:53.865Z,83.20
2017-12-28T06:20:27.599Z,83.30
2017-12-28T06:21:01.278Z,83.30
2017-12-28T06:21:34.940Z,83.40
2017-12-28T06:22:08.614Z,83.30
2017-12-28T06:22:43.045Z,83.40
2017-12-28T06:23:16.703Z,83.40
2017-12-28T06:23:50.945Z,83.40
2017-12-28T06:24:24.622Z,83.40
2017-12-28T06:24:58.286Z,83.40
2017-12-28T06:25:33.035Z,83.40
2017-12-28T06:26:06.700Z,83.40
2017-12-28T06:26:40.950Z,83.40
2017-12-28T06:27:14.426Z,83.40
2017-12-28T06:27:48.105Z,83.40
2017-12-28T06:28:21.771Z,83.40
2017-12-28T06:28:55.446Z,83.40
2017-12-28T06:29:29.886Z,83.40
2017-12-28T06:30:03.562Z,83.30
2017-12-28T06:30:37.262Z,83.40
2017-12-28T06:31:10.918Z,83.40
2017-12-28T06:31:45.351Z,83.40
2017-12-28T06:32:19.013Z,83.40
2017-12-28T06:32:53.438Z,84.00
2017-12-28T06:33:26.926Z,83.40
2017-12-28T06:34:00.582Z,83.40
2017-12-28T06:34:34.248Z,83.30
2017-12-28T06:35:08.078Z,83.30
2017-12-28T06:35:42.532Z,83.30
2017-12-28T06:36:16.196Z,83.30
2017-12-28T06:36:49.866Z,83.20
2017-12-28T06:37:24.293Z,83.30
2017-12-28T06:37:57.959Z,83.30
2017-12-28T06:38:32.380Z,84.10
2017-12-28T06:39:06.812Z,83.40
2017-12-28T06:39:40.478Z,83.30
2017-12-28T06:40:14.914Z,83.40
2017-12-28T06:40:48.969Z,83.40
2017-12-28T06:41:23.389Z,83.50
2017-12-28T06:41:57.822Z,83.50
2017-12-28T06:42:31.477Z,83.50
2017-12-28T06:43:05.905Z,83.50
2017-12-28T06:43:39.674Z,83.50
2017-12-28T06:44:14.105Z,84.10
2017-12-28T06:44:47.873Z,83.50
2017-12-28T06:45:21.538Z,83.50
2017-12-28T06:45:55.557Z,83.60
2017-12-28T06:46:29.993Z,83.60
2017-12-28T06:47:03.653Z,83.60
2017-12-28T06:47:38.072Z,83.60
2017-12-28T06:48:12.509Z,83.60
2017-12-28T06:48:46.170Z,83.60
2017-12-28T06:49:20.594Z,83.50
2017-12-28T06:49:54.258Z,83.50
2017-12-28T06:50:28.687Z,83.50
2017-12-28T06:51:02.756Z,83.50
2017-12-28T06:51:37.190Z,83.60
2017-12-28T06:52:10.857Z,83.50
2017-12-28T06:52:45.310Z,83.50
2017-12-28T06:53:18.986Z,83.50
2017-12-28T06:53:52.670Z,83.50
2017-12-28T06:54:26.397Z,83.60
2017-12-28T06:55:00.083Z,83.70
2017-12-28T06:55:33.749Z,83.70
2017-12-28T06:56:07.441Z,83.70
2017-12-28T06:56:41.115Z,83.60
2017-12-28T06:57:14.780Z,83.70
2017-12-28T06:57:49.205Z,83.70
2017-12-28T06:58:23.638Z,83.70
2017-12-28T06:58:59.103Z,83.70
2017-12-28T06:59:32.906Z,83.60
2017-12-28T07:00:07.781Z,83.60
2017-12-28T07:00:41.454Z,83.50
2017-12-28T07:01:15.634Z,83.60
2017-12-28T07:01:50.063Z,83.60
2017-12-28T07:02:23.725Z,83.50
2017-12-28T07:02:58.157Z,83.60
2017-12-28T07:03:31.820Z,83.60
2017-12-28T07:04:06.244Z,83.70
2017-12-28T07:04:40.673Z,83.80
2017-12-28T07:05:14.342Z,83.70
2017-12-28T07:05:48.009Z,83.60
2017-12-28T07:06:21.723Z,83.60
2017-12-28T07:06:55.498Z,83.70
2017-12-28T07:07:29.941Z,83.70
2017-12-28T07:08:03.613Z,83.70
2017-12-28T07:08:37.270Z,83.70
2017-12-28T07:09:10.933Z,83.70
2017-12-28T07:09:44.609Z,83.60
2017-12-28T07:10:18.290Z,83.70
2017-12-28T07:10:51.951Z,83.70
2017-12-28T07:11:26.402Z,83.70
2017-12-28T07:12:00.084Z,83.70
2017-12-28T07:12:33.751Z,83.70
2017-12-28T07:13:07.414Z,83.60
2017-12-28T07:13:41.078Z,83.60
2017-12-28T07:14:14.744Z,83.60
2017-12-28T07:14:48.406Z,83.70
2017-12-28T07:15:22.073Z,83.60
2017-12-28T07:15:56.502Z,83.60
2017-12-28T07:16:30.192Z,83.60
2017-12-28T07:17:03.874Z,83.60
2017-12-28T07:17:38.318Z,83.60